createdAt,value
2019-05-17T00:02:17.916Z,8.20
2019-05-17T00:04:47.263Z,8.20
2019-05-17T00:07:16.835Z,8.20
2019-05-17T00:09:47.890Z,8.20
2019-05-17T00:12:17.500Z,8.60
2019-05-17T00:14:47.250Z,8.60
2019-05-17T00:17:17.315Z,8.60
2019-05-17T00:19:47.925Z,8.60
2019-05-17T00:22:17.439Z,8.50
2019-05-17T00:24:47.717Z,8.40
2019-05-17T00:27:17.432Z,8.50
2019-05-17T00:29:46.822Z,8.50
2019-05-17T00:32:17.340Z,8.40
2019-05-17T00:34:47.766Z,8.60
2019-05-17T00:37:18.126Z,8.70
2019-05-17T00:39:47.524Z,8.80
2019-05-17T00:42:17.204Z,8.70
2019-05-17T00:44:47.394Z,8.60
2019-05-17T00:47:17.247Z,8.70
2019-05-17T00:49:46.754Z,8.80
2019-05-17T00:52:16.663Z,8.80
2019-05-17T00:54:46.952Z,8.70
2019-05-17T00:57:16.719Z,8.60
2019-05-17T00:59:47.594Z,8.70
2019-05-17T01:02:17.223Z,8.80
2019-05-17T01:04:47.579Z,8.60
2019-05-17T01:07:18.134Z,8.50
2019-05-17T01:09:47.491Z,8.50
2019-05-17T01:12:16.844Z,8.50
2019-05-17T01:14:46.599Z,8.60
2019-05-17T01:17:16.538Z,8.60
2019-05-17T01:19:47.158Z,8.70
2019-05-17T01:22:16.979Z,8.80
2019-05-17T01:24:46.497Z,8.70
2019-05-17T01:27:17.340Z,8.70
2019-05-17T01:29:46.804Z,8.90
2019-05-17T01:32:17.250Z,8.70
2019-05-17T01:34:46.981Z,8.50
2019-05-17T01:37:17.224Z,8.40
2019-05-17T01:39:46.887Z,8.40
2019-05-17T01:42:17.183Z,8.40
2019-05-17T01:44:47.268Z,8.40
2019-05-17T01:47:16.789Z,8.40
2019-05-17T01:49:47.323Z,8.30
2019-05-17T01:52:16.942Z,8.70
2019-05-17T01:54:46.930Z,8.70
2019-05-17T01:57:16.981Z,8.70
2019-05-17T01:59:46.778Z,8.50
2019-05-17T02:02:18.005Z,8.60
2019-05-17T02:04:47.393Z,8.60
2019-05-17T02:07:17.276Z,8.40
2019-05-17T02:09:47.837Z,8.30
2019-05-17T02:12:18.328Z,8.30
2019-05-17T02:14:47.836Z,8.30
2019-05-17T02:17:17.506Z,8.30
2019-05-17T02:19:46.902Z,8.20
2019-05-17T02:22:16.713Z,8.20
2019-05-17T02:24:46.509Z,8.10
2019-05-17T02:27:16.050Z,8.30
2019-05-17T02:29:45.416Z,8.40
2019-05-17T02:32:15.080Z,8.30
2019-05-17T02:34:44.412Z,8.20
2019-05-17T02:37:13.793Z,8.30
2019-05-17T02:39:56.515Z,8.30
2019-05-17T02:42:14.227Z,8.30
2019-05-17T02:44:43.895Z,8.30
2019-05-17T02:47:13.463Z,8.30
2019-05-17T02:49:43.941Z,8.30
2019-05-17T02:52:13.283Z,8.20
2019-05-17T02:54:43.708Z,8.20
2019-05-17T02:57:14.406Z,8.20
2019-05-17T02:59:43.996Z,8.40
2019-05-17T03:02:13.396Z,8.30
2019-05-17T03:04:43.473Z,8.30
2019-05-17T03:07:25.711Z,8.20
2019-05-17T03:10:11.736Z,8.30
2019-05-17T03:12:26.165Z,8.30
2019-05-17T03:14:55.571Z,8.50
2019-05-17T03:17:24.896Z,8.50
2019-05-17T03:19:54.306Z,8.40
2019-05-17T03:22:23.631Z,8.30
2019-05-17T03:24:53.462Z,8.20
2019-05-17T03:27:23.935Z,8.10
2019-05-17T03:29:53.841Z,8.10
2019-05-17T03:32:26.668Z,8.10
2019-05-17T03:34:56.779Z,8.30
2019-05-17T03:37:32.567Z,8.20
2019-05-17T03:39:57.314Z,8.20
2019-05-17T03:42:26.714Z,8.10
2019-05-17T03:44:56.088Z,8.20
2019-05-17T03:47:25.692Z,8.20
2019-05-17T03:49:56.116Z,8.20
2019-05-17T03:52:25.606Z,8.30
2019-05-17T03:54:54.971Z,8.20
2019-05-17T03:57:24.378Z,8.30
2019-05-17T03:59:53.802Z,8.50
2019-05-17T04:02:23.316Z,8.40
2019-05-17T04:04:53.117Z,8.30
2019-05-17T04:07:23.588Z,8.50
2019-05-17T04:09:53.506Z,8.40
2019-05-17T04:12:23.394Z,8.40
2019-05-17T04:14:53.501Z,8.40
2019-05-17T04:17:23.078Z,8.40
2019-05-17T04:19:53.460Z,8.70
2019-05-17T04:22:23.856Z,8.80
2019-05-17T04:24:53.522Z,8.90
2019-05-17T04:27:23.149Z,8.80
2019-05-17T04:29:53.283Z,8.80
2019-05-17T04:32:23.485Z,8.70
2019-05-17T04:34:53.060Z,8.70
2019-05-17T04:37:23.499Z,8.70
2019-05-17T04:39:52.905Z,8.80
2019-05-17T04:42:22.861Z,8.80
2019-05-17T04:44:52.866Z,8.90
2019-05-17T04:47:23.121Z,8.90
2019-05-17T04:49:53.947Z,9.00
2019-05-17T04:52:23.472Z,9.10
2019-05-17T04:54:53.719Z,9.30
2019-05-17T04:57:23.511Z,9.30
2019-05-17T04:59:52.868Z,9.60
2019-05-17T05:02:23.634Z,9.40
2019-05-17T05:04:53.450Z,9.40
2019-05-17T05:07:23.020Z,9.50
2019-05-17T05:09:53.417Z,9.60
2019-05-17T05:12:24.098Z,9.80
2019-05-17T05:14:53.643Z,10.10
2019-05-17T05:17:23.077Z,10.30
2019-05-17T05:19:53.003Z,10.50
2019-05-17T05:22:22.728Z,12.10
2019-05-17T05:24:52.456Z,12.90
2019-05-17T05:27:22.327Z,12.90
2019-05-17T05:29:52.171Z,13.10
2019-05-17T05:32:22.037Z,12.60
2019-05-17T05:34:51.983Z,12.60
2019-05-17T05:37:23.191Z,13.50
2019-05-17T05:39:54.618Z,14.50
2019-05-17T05:42:23.789Z,13.70
2019-05-17T05:44:55.411Z,12.60
2019-05-17T05:47:24.179Z,12.80
2019-05-17T05:49:53.582Z,12.20
2019-05-17T05:52:22.924Z,12.20
2019-05-17T05:54:52.258Z,13.60
2019-05-17T05:57:21.971Z,14.40
2019-05-17T05:59:51.803Z,13.40
2019-05-17T06:02:21.856Z,13.50
2019-05-17T06:04:51.807Z,13.70
2019-05-17T06:07:21.748Z,13.30
2019-05-17T06:09:51.847Z,12.90
2019-05-17T06:12:27.704Z,12.50
2019-05-17T06:14:52.506Z,12.80
2019-05-17T06:17:21.902Z,13.10
2019-05-17T06:19:51.806Z,13.10
2019-05-17T06:22:22.494Z,12.80
2019-05-17T06:24:52.142Z,12.80
2019-05-17T06:27:21.707Z,12.80
2019-05-17T06:29:51.478Z,12.80
2019-05-17T06:32:22.753Z,12.70
2019-05-17T06:34:52.136Z,12.60
2019-05-17T06:37:22.355Z,12.30
2019-05-17T06:39:52.800Z,12.30
2019-05-17T06:42:37.075Z,12.30
2019-05-17T06:44:53.184Z,14.00
2019-05-17T06:47:22.649Z,13.30
2019-05-17T06:49:53.521Z,12.90
2019-05-17T06:52:23.151Z,12.80
2019-05-17T06:54:52.623Z,12.60
2019-05-17T06:57:23.265Z,12.60
2019-05-17T06:59:52.842Z,12.60
2019-05-17T07:02:22.288Z,12.70
2019-05-17T07:04:53.327Z,13.10
2019-05-17T07:07:30.445Z,13.40
2019-05-17T07:10:00.903Z,13.30
2019-05-17T07:12:30.799Z,13.40
2019-05-17T07:15:01.649Z,13.40
2019-05-17T07:17:31.512Z,13.60
2019-05-17T07:20:00.947Z,13.70
2019-05-17T07:22:30.312Z,14.00
2019-05-17T07:24:59.881Z,14.60
2019-05-17T07:27:38.729Z,14.20
2019-05-17T07:30:00.510Z,13.80
2019-05-17T07:32:29.979Z,13.70
2019-05-17T07:35:00.009Z,13.70
2019-05-17T07:37:30.346Z,13.90
2019-05-17T07:40:04.887Z,13.90
2019-05-17T07:42:31.869Z,13.60
2019-05-17T07:45:01.244Z,13.70
2019-05-17T07:47:30.575Z,14.50
2019-05-17T07:50:01.066Z,13.90
2019-05-17T07:52:31.785Z,14.10
2019-05-17T07:55:02.679Z,14.40
2019-05-17T07:57:32.378Z,14.60
2019-05-17T08:00:01.780Z,14.90
2019-05-17T08:02:31.220Z,14.80
2019-05-17T08:05:00.767Z,14.90
2019-05-17T08:07:30.329Z,15.00
2019-05-17T08:10:00.249Z,15.10
2019-05-17T08:12:30.413Z,15.10
2019-05-17T08:15:00.306Z,14.70
2019-05-17T08:17:30.504Z,14.80
2019-05-17T08:20:00.629Z,15.20
2019-05-17T08:22:31.491Z,15.70
2019-05-17T08:25:00.888Z,15.80
2019-05-17T08:27:30.210Z,16.10
2019-05-17T08:29:59.917Z,16.00
2019-05-17T08:32:31.727Z,15.60
2019-05-17T08:35:01.235Z,15.70
2019-05-17T08:37:30.565Z,15.60
2019-05-17T08:40:00.227Z,15.70
2019-05-17T08:42:30.071Z,15.60
2019-05-17T08:45:00.706Z,15.70
2019-05-17T08:47:30.333Z,15.60
2019-05-17T08:50:00.471Z,15.80
2019-05-17T08:52:30.092Z,16.10
2019-05-17T08:55:00.378Z,15.90
2019-05-17T08:57:30.422Z,16.30
2019-05-17T09:00:00.921Z,16.50
2019-05-17T09:02:32.461Z,16.50
2019-05-17T09:05:01.878Z,16.60
2019-05-17T09:07:31.271Z,16.60
2019-05-17T09:10:02.138Z,16.70
2019-05-17T09:12:32.545Z,16.50
2019-05-17T09:15:01.968Z,16.90
2019-05-17T09:17:31.331Z,17.10
2019-05-17T09:20:00.935Z,17.10
2019-05-17T09:22:30.641Z,16.90
2019-05-17T09:25:00.230Z,17.10
2019-05-17T09:27:30.134Z,17.90
2019-05-17T09:30:00.041Z,18.10
2019-05-17T09:32:29.795Z,17.30
2019-05-17T09:35:00.369Z,17.40
2019-05-17T09:37:30.502Z,17.20
2019-05-17T09:40:00.096Z,17.20
2019-05-17T09:42:30.074Z,16.90
2019-05-17T09:45:00.623Z,16.90
2019-05-17T09:47:30.250Z,16.90
2019-05-17T09:50:00.774Z,17.00
2019-05-17T09:52:30.133Z,17.00
2019-05-17T09:55:00.433Z,16.90
2019-05-17T09:57:31.559Z,17.10
2019-05-17T10:00:00.867Z,17.30
2019-05-17T10:02:30.295Z,17.30
2019-05-17T10:04:59.927Z,17.20
2019-05-17T10:07:29.966Z,17.70
2019-05-17T10:09:59.851Z,17.60
2019-05-17T10:12:29.343Z,17.30
2019-05-17T10:15:00.473Z,17.20
2019-05-17T10:17:29.719Z,17.70
2019-05-17T10:19:59.927Z,18.00
2019-05-17T10:22:30.361Z,17.60
2019-05-17T10:25:00.994Z,17.60
2019-05-17T10:27:30.386Z,17.70
2019-05-17T10:29:59.923Z,17.50
2019-05-17T10:32:30.995Z,17.40
2019-05-17T10:35:00.603Z,17.10
2019-05-17T10:37:31.330Z,17.20
2019-05-17T10:40:00.763Z,17.20
2019-05-17T10:42:30.580Z,16.90
2019-05-17T10:45:00.213Z,16.90
2019-05-17T10:47:30.107Z,17.20
2019-05-17T10:49:59.678Z,17.30
2019-05-17T10:52:30.013Z,17.60
2019-05-17T10:54:59.826Z,17.90
2019-05-17T10:57:30.286Z,17.90
2019-05-17T11:00:00.957Z,17.80
2019-05-17T11:02:30.760Z,17.70
2019-05-17T11:05:00.770Z,18.10
2019-05-17T11:07:30.439Z,17.90
2019-05-17T11:10:00.545Z,17.70
2019-05-17T11:12:30.244Z,17.80
2019-05-17T11:15:10.533Z,17.60
2019-05-17T11:17:31.924Z,17.50
2019-05-17T11:20:02.690Z,17.50
2019-05-17T11:22:32.105Z,17.60
2019-05-17T11:25:01.524Z,17.80
2019-05-17T11:27:30.952Z,17.80
2019-05-17T11:30:00.280Z,17.50
2019-05-17T11:32:30.840Z,17.30
2019-05-17T11:35:00.281Z,17.20
2019-05-17T11:37:29.687Z,17.40
2019-05-17T11:39:59.053Z,17.30
2019-05-17T11:42:28.451Z,17.30
2019-05-17T11:44:57.828Z,17.10
2019-05-17T11:47:27.264Z,16.90
2019-05-17T11:49:56.694Z,16.80
2019-05-17T11:52:26.132Z,17.20
2019-05-17T11:54:55.487Z,17.20
2019-05-17T11:57:24.855Z,17.50
2019-05-17T11:59:54.295Z,17.70
2019-05-17T12:02:23.631Z,17.80
2019-05-17T12:04:52.959Z,17.70
2019-05-17T12:07:22.297Z,18.20
2019-05-17T12:09:51.626Z,18.80
2019-05-17T12:12:20.994Z,18.60
2019-05-17T12:14:50.326Z,18.30
2019-05-17T12:17:19.694Z,18.40
2019-05-17T12:19:49.102Z,18.50
2019-05-17T12:22:18.444Z,18.70
2019-05-17T12:24:47.801Z,18.50
2019-05-17T12:27:17.206Z,18.50
2019-05-17T12:29:46.542Z,18.30
2019-05-17T12:32:17.081Z,18.60
2019-05-17T12:34:46.761Z,18.30
2019-05-17T12:37:16.200Z,17.80
2019-05-17T12:39:45.635Z,17.70
2019-05-17T12:42:15.084Z,17.70
2019-05-17T12:44:44.423Z,17.90
2019-05-17T12:47:13.824Z,17.80
2019-05-17T12:49:43.169Z,17.60
2019-05-17T12:52:12.566Z,17.60
2019-05-17T12:54:41.965Z,17.60
2019-05-17T12:57:11.329Z,17.40
2019-05-17T12:59:40.734Z,17.40
2019-05-17T13:02:12.202Z,17.40
2019-05-17T13:04:41.144Z,17.50
2019-05-17T13:07:10.499Z,17.40
2019-05-17T13:09:39.869Z,17.30
2019-05-17T13:12:09.262Z,17.30
2019-05-17T13:14:38.648Z,17.80
2019-05-17T13:17:07.980Z,18.00
2019-05-17T13:19:37.336Z,18.00
2019-05-17T13:22:06.752Z,18.10
2019-05-17T13:24:36.074Z,18.10
2019-05-17T13:27:05.449Z,18.20
2019-05-17T13:29:35.014Z,18.30
2019-05-17T13:32:04.358Z,18.30
2019-05-17T13:34:33.720Z,17.70
2019-05-17T13:37:03.199Z,17.40
2019-05-17T13:39:32.523Z,17.50
2019-05-17T13:42:01.912Z,17.60
2019-05-17T13:44:31.315Z,17.60
2019-05-17T13:47:00.672Z,17.60
2019-05-17T13:49:30.046Z,17.60
2019-05-17T13:51:59.467Z,17.80
2019-05-17T13:54:28.829Z,17.90
2019-05-17T13:56:58.258Z,18.30
2019-05-17T13:59:27.663Z,19.10
2019-05-17T14:01:57.001Z,18.90
2019-05-17T14:04:26.332Z,18.90
2019-05-17T14:06:55.688Z,18.70
2019-05-17T14:09:25.140Z,18.70
2019-05-17T14:11:54.650Z,18.30
2019-05-17T14:14:23.988Z,18.10
2019-05-17T14:16:53.327Z,18.50
2019-05-17T14:19:22.674Z,18.60
2019-05-17T14:21:52.090Z,18.60
2019-05-17T14:24:21.542Z,20.00
2019-05-17T14:26:50.861Z,21.30
2019-05-17T14:29:20.240Z,22.30
2019-05-17T14:31:49.639Z,22.30
2019-05-17T14:34:19.004Z,21.90
2019-05-17T14:36:48.406Z,20.70
2019-05-17T14:39:17.764Z,20.40
2019-05-17T14:41:47.199Z,20.40
2019-05-17T14:44:16.539Z,20.20
2019-05-17T14:46:45.956Z,20.20
2019-05-17T14:49:15.386Z,19.90
2019-05-17T14:51:44.818Z,19.70
2019-05-17T14:54:14.268Z,20.00
2019-05-17T14:56:56.112Z,20.00
2019-05-17T14:59:25.479Z,20.40
2019-05-17T15:01:54.862Z,20.70
2019-05-17T15:04:24.281Z,20.80
2019-05-17T15:06:53.672Z,20.90
2019-05-17T15:09:23.086Z,20.30
2019-05-17T15:11:52.520Z,19.90
2019-05-17T15:14:21.927Z,20.70
2019-05-17T15:16:51.261Z,22.20
2019-05-17T15:19:20.594Z,21.10
2019-05-17T15:21:49.960Z,20.00
2019-05-17T15:24:38.699Z,20.00
2019-05-17T15:27:08.105Z,20.10
2019-05-17T15:29:37.498Z,20.90
2019-05-17T15:32:06.827Z,20.40
2019-05-17T15:34:36.200Z,20.80
2019-05-17T15:37:05.697Z,20.30
2019-05-17T15:39:35.075Z,20.40
2019-05-17T15:42:04.532Z,20.10
2019-05-17T15:44:33.932Z,20.20
2019-05-17T15:47:03.340Z,19.90
2019-05-17T15:49:32.803Z,19.60
2019-05-17T15:52:02.166Z,19.20
2019-05-17T15:54:31.595Z,19.30
2019-05-17T15:57:00.922Z,19.40
2019-05-17T15:59:30.281Z,19.30
2019-05-17T16:01:59.721Z,19.10
2019-05-17T16:04:29.130Z,18.70
2019-05-17T16:06:58.556Z,18.70
2019-05-17T16:09:27.970Z,18.40
2019-05-17T16:11:57.310Z,18.60
2019-05-17T16:14:26.672Z,18.90
2019-05-17T16:16:56.067Z,19.40
2019-05-17T16:19:25.436Z,20.00
2019-05-17T16:21:54.834Z,20.20
2019-05-17T16:24:24.364Z,20.20
2019-05-17T16:26:53.762Z,19.60
2019-05-17T16:29:23.159Z,19.50
2019-05-17T16:31:52.527Z,19.50
2019-05-17T16:34:21.884Z,19.50
2019-05-17T16:36:51.272Z,19.90
2019-05-17T16:39:20.697Z,19.70
2019-05-17T16:41:50.144Z,20.30
2019-05-17T16:44:19.505Z,19.60
2019-05-17T16:46:48.868Z,19.40
2019-05-17T16:49:18.275Z,19.50
2019-05-17T16:51:47.594Z,18.60
2019-05-17T16:54:16.931Z,18.60
2019-05-17T16:56:46.251Z,18.50
2019-05-17T16:59:15.607Z,18.90
2019-05-17T17:01:44.955Z,18.90
2019-05-17T17:04:14.284Z,19.10
2019-05-17T17:06:43.602Z,19.10
2019-05-17T17:09:12.955Z,19.00
2019-05-17T17:11:42.312Z,19.70
2019-05-17T17:14:11.634Z,18.80
2019-05-17T17:16:41.000Z,18.40
2019-05-17T17:19:10.419Z,18.60
2019-05-17T17:21:39.821Z,19.00
2019-05-17T17:24:09.171Z,19.10
2019-05-17T17:26:38.607Z,18.60
2019-05-17T17:29:08.001Z,18.30
2019-05-17T17:31:37.338Z,18.20
2019-05-17T17:34:06.713Z,18.20
2019-05-17T17:36:36.149Z,18.00
2019-05-17T17:39:06.515Z,18.30
2019-05-17T17:41:35.843Z,18.20
2019-05-17T17:44:05.380Z,18.20
2019-05-17T17:46:34.793Z,18.00
2019-05-17T17:49:04.191Z,18.20
2019-05-17T17:51:33.600Z,18.50
2019-05-17T17:54:02.964Z,18.00
2019-05-17T17:56:32.325Z,17.70
2019-05-17T17:59:01.782Z,17.70
2019-05-17T18:01:31.168Z,18.00
2019-05-17T18:04:01.573Z,17.90
2019-05-17T18:06:30.995Z,17.60
2019-05-17T18:09:00.436Z,17.20
2019-05-17T18:11:31.310Z,16.90
2019-05-17T18:14:12.487Z,16.80
2019-05-17T18:16:31.691Z,16.70
2019-05-17T18:19:01.124Z,16.70
2019-05-17T18:21:30.656Z,16.60
2019-05-17T18:24:00.046Z,16.60
2019-05-17T18:26:29.399Z,16.50
2019-05-17T18:28:58.836Z,16.30
2019-05-17T18:31:28.268Z,16.20
2019-05-17T18:33:57.710Z,16.20
2019-05-17T18:36:27.504Z,16.10
2019-05-17T18:38:57.277Z,16.00
2019-05-17T18:41:26.700Z,15.90
2019-05-17T18:43:56.026Z,15.70
2019-05-17T18:46:25.397Z,15.70
2019-05-17T18:48:54.796Z,15.70
2019-05-17T18:51:24.160Z,15.50
2019-05-17T18:53:54.398Z,15.60
2019-05-17T18:56:23.727Z,15.40
2019-05-17T18:58:53.485Z,15.40
2019-05-17T19:01:22.916Z,15.30
2019-05-17T19:03:52.344Z,15.30
2019-05-17T19:06:21.771Z,15.20
2019-05-17T19:08:51.182Z,15.20
2019-05-17T19:11:21.575Z,15.10
2019-05-17T19:13:50.897Z,15.10
2019-05-17T19:16:20.223Z,15.00
2019-05-17T19:18:49.632Z,14.90
2019-05-17T19:21:19.027Z,14.60
2019-05-17T19:23:49.449Z,14.50
2019-05-17T19:26:18.803Z,14.30
2019-05-17T19:28:48.120Z,14.30
2019-05-17T19:31:17.500Z,14.30
2019-05-17T19:33:46.859Z,14.20
2019-05-17T19:36:16.292Z,14.20
2019-05-17T19:38:45.707Z,14.10
2019-05-17T19:41:16.144Z,14.00
2019-05-17T19:43:45.536Z,13.90
2019-05-17T19:46:15.860Z,13.90
2019-05-17T19:48:45.246Z,13.80
2019-05-17T19:51:14.582Z,13.70
2019-05-17T19:53:43.919Z,13.70
2019-05-17T19:56:13.257Z,13.70
2019-05-17T19:58:43.588Z,13.50
2019-05-17T20:01:12.987Z,13.60
2019-05-17T20:03:42.496Z,13.50
2019-05-17T20:06:11.937Z,13.50
2019-05-17T20:08:41.331Z,13.50
2019-05-17T20:11:10.669Z,13.40
2019-05-17T20:13:40.100Z,13.30
2019-05-17T20:16:09.496Z,13.30
2019-05-17T20:18:38.826Z,13.30
2019-05-17T20:21:08.169Z,13.10
2019-05-17T20:23:37.607Z,13.20
2019-05-17T20:26:07.007Z,13.20
2019-05-17T20:28:36.328Z,13.10
2019-05-17T20:31:05.698Z,13.00
2019-05-17T20:33:35.136Z,13.00
2019-05-17T20:36:04.567Z,12.90
2019-05-17T20:38:33.993Z,12.90
2019-05-17T20:41:03.738Z,12.80
2019-05-17T20:43:33.160Z,12.80
2019-05-17T20:46:02.617Z,12.70
2019-05-17T20:48:31.990Z,12.70
2019-05-17T20:51:01.362Z,12.60
2019-05-17T20:53:31.726Z,12.60
2019-05-17T20:56:01.086Z,12.50
2019-05-17T20:58:30.515Z,12.40
2019-05-17T21:00:59.855Z,12.50
2019-05-17T21:03:29.231Z,12.40
2019-05-17T21:05:58.566Z,12.50
2019-05-17T21:08:28.000Z,12.40
2019-05-17T21:10:57.364Z,12.50
2019-05-17T21:13:26.699Z,12.40
2019-05-17T21:15:56.072Z,12.30
2019-05-17T21:18:25.515Z,12.30
2019-05-17T21:20:54.847Z,12.20
2019-05-17T21:23:24.228Z,12.10
2019-05-17T21:25:53.588Z,12.10
2019-05-17T21:28:22.978Z,12.00
2019-05-17T21:30:52.451Z,12.00
2019-05-17T21:33:21.879Z,12.00
2019-05-17T21:35:51.198Z,12.00
2019-05-17T21:38:20.539Z,12.10
2019-05-17T21:40:49.905Z,12.10
2019-05-17T21:43:19.356Z,12.10
2019-05-17T21:46:02.788Z,12.10
2019-05-17T21:48:19.742Z,12.10
2019-05-17T21:50:49.125Z,12.00
2019-05-17T21:53:18.552Z,11.80
2019-05-17T21:55:47.951Z,11.70
2019-05-17T21:58:20.363Z,11.60
2019-05-17T22:01:03.652Z,11.60
2019-05-17T22:03:33.262Z,11.50
2019-05-17T22:06:02.687Z,11.30
2019-05-17T22:08:32.129Z,11.30
2019-05-17T22:11:01.554Z,11.30
2019-05-17T22:13:30.991Z,11.20
2019-05-17T22:16:00.310Z,11.00
2019-05-17T22:18:31.321Z,11.00
2019-05-17T22:21:00.677Z,11.00
2019-05-17T22:23:30.011Z,11.10
2019-05-17T22:25:59.335Z,11.20
2019-05-17T22:28:28.705Z,11.10
2019-05-17T22:30:58.014Z,11.10
2019-05-17T22:33:27.379Z,10.90
2019-05-17T22:35:56.787Z,11.00
2019-05-17T22:38:26.115Z,11.00
2019-05-17T22:40:55.488Z,11.00
2019-05-17T22:43:24.912Z,11.00
2019-05-17T22:45:54.359Z,11.00
2019-05-17T22:48:23.763Z,10.90
2019-05-17T22:50:54.207Z,10.90
2019-05-17T22:53:23.642Z,10.90
2019-05-17T22:55:53.227Z,10.80
2019-05-17T22:58:22.579Z,10.80
2019-05-17T23:00:51.946Z,10.80
2019-05-17T23:03:21.362Z,10.80
2019-05-17T23:05:50.687Z,10.80
2019-05-17T23:08:20.023Z,10.80
2019-05-17T23:10:49.446Z,10.70
2019-05-17T23:13:18.778Z,10.70
2019-05-17T23:16:01.112Z,10.70
2019-05-17T23:18:34.359Z,10.70
2019-05-17T23:21:04.050Z,10.50
2019-05-17T23:23:33.486Z,10.30
2019-05-17T23:26:02.921Z,10.40
2019-05-17T23:28:32.336Z,10.40
2019-05-17T23:31:01.771Z,10.40
2019-05-17T23:33:31.207Z,10.40
2019-05-17T23:36:00.576Z,10.40
2019-05-17T23:38:30.016Z,10.30
2019-05-17T23:40:59.339Z,10.20
2019-05-17T23:43:28.900Z,10.10
2019-05-17T23:45:58.309Z,10.00
2019-05-17T23:48:27.669Z,10.00
2019-05-17T23:50:57.084Z,10.10
2019-05-17T23:53:26.417Z,10.10
2019-05-17T23:55:55.789Z,10.10
2019-05-17T23:58:25.126Z,10.10
